Time;durP1;ratioP1;P1;durP2;ratioP2;P2;SDS_P1;SDS_P2;PMS_P1;PMS_P2;Temp;Humidity;BMP_temperature;BMP_pressure;BME280_temperature;BME280_humidity;BME280_pressure;Samples;Min_cycle;Max_cycle;Signal;HPM_P1;HPM_P2
2022/08/03 00:00:08;;;;;;;;;;;18.60;99.90;;;;;;5135818;27;19907;-73
2022/08/03 00:02:33;;;;;;;;;;;18.60;99.90;;;;;;5136715;27;19903;-73
2022/08/03 00:04:59;;;;;;;;;;;18.60;99.90;;;;;;5136055;27;19914;-74
2022/08/03 00:07:24;;;;;;;;;;;18.60;99.90;;;;;;5137179;27;19907;-73
2022/08/03 00:09:50;;;;;;;;;;;18.50;99.90;;;;;;5136903;27;20344;-74
2022/08/03 00:12:16;;;;;;;;;;;18.40;99.90;;;;;;5136261;27;19957;-74
2022/08/03 00:14:41;;;;;;;;;;;18.40;99.90;;;;;;5136770;27;19903;-74
2022/08/03 00:17:07;;;;;;;;;;;18.40;99.90;;;;;;5135888;27;19907;-74
2022/08/03 00:19:32;;;;;;;;;;;18.40;99.90;;;;;;5136727;27;19903;-73
2022/08/03 00:21:58;;;;;;;;;;;18.40;99.90;;;;;;5136112;27;19908;-74
2022/08/03 00:24:23;;;;;;;;;;;18.40;99.90;;;;;;5136647;27;20255;-74
2022/08/03 00:26:49;;;;;;;;;;;18.40;99.90;;;;;;5136778;27;19907;-73
2022/08/03 00:29:14;;;;;;;;;;;18.40;99.90;;;;;;5135953;27;20340;-74
2022/08/03 00:31:40;;;;;;;;;;;18.40;99.90;;;;;;5136285;27;19907;-73
2022/08/03 00:34:05;;;;;;;;;;;18.40;99.90;;;;;;5135709;27;19990;-73
2022/08/03 00:36:31;;;;;;;;;;;18.40;99.90;;;;;;5136325;27;19904;-74
2022/08/03 00:38:57;;;;;;;;;;;18.40;99.90;;;;;;5135938;27;19903;-74
2022/08/03 00:41:22;;;;;;;;;;;18.40;99.90;;;;;;5136189;27;19921;-73
2022/08/03 00:43:48;;;;;;;;;;;18.50;99.90;;;;;;5136202;27;19907;-73
2022/08/03 00:46:13;;;;;;;;;;;18.50;99.90;;;;;;5135553;27;20005;-73
2022/08/03 00:48:39;;;;;;;;;;;18.50;99.90;;;;;;5135830;27;20001;-72
2022/08/03 00:51:05;;;;;;;;;;;18.50;99.90;;;;;;5135224;27;19903;-73
2022/08/03 00:53:31;;;;;;;;;;;18.50;99.90;;;;;;5136032;27;19910;-73
2022/08/03 00:55:57;;;;;;;;;;;18.50;99.90;;;;;;5135145;27;19903;-73
2022/08/03 00:58:23;;;;;;;;;;;18.40;99.90;;;;;;5135405;27;20252;-73
2022/08/03 01:00:48;;;;;;;;;;;18.50;99.90;;;;;;5135228;27;19915;-73
2022/08/03 01:03:14;;;;;;;;;;;18.50;99.90;;;;;;5134957;27;19907;-73
2022/08/03 01:06:15;;;;;;;;;;;18.50;99.90;;;;;;5134986;27;19915;-74
2022/08/03 01:08:56;;;;;;;;;;;18.40;99.90;;;;;;5031420;28;20401;-74
2022/08/03 01:11:35;;;;;;;;;;;18.40;99.90;;;;;;5124014;27;19903;-74
2022/08/03 01:14:13;;;;;;;;;;;18.30;99.90;;;;;;5134741;27;20351;-74
2022/08/03 01:16:47;;;;;;;;;;;18.30;99.90;;;;;;5135315;27;19903;-73
2022/08/03 01:19:12;;;;;;;;;;;18.30;99.90;;;;;;5134571;27;19956;-74
2022/08/03 01:21:44;;;;;;;;;;;18.30;99.90;;;;;;5134961;27;19908;-74
2022/08/03 01:24:28;;;;;;;;;;;18.30;99.90;;;;;;5134487;27;19904;-74
2022/08/03 01:26:54;;;;;;;;;;;18.20;99.90;;;;;;5135056;27;20002;-73
2022/08/03 01:29:28;;;;;;;;;;;18.20;99.90;;;;;;5134387;27;19946;-74
2022/08/03 01:32:00;;;;;;;;;;;18.20;99.90;;;;;;5134757;27;19903;-73
2022/08/03 01:34:27;;;;;;;;;;;18.20;99.90;;;;;;5116554;27;19903;-73
2022/08/03 01:36:55;;;;;;;;;;;18.20;99.90;;;;;;5134405;27;19903;-73
2022/08/03 01:39:22;;;;;;;;;;;18.20;99.90;;;;;;5134494;27;19904;-74
2022/08/03 01:41:49;;;;;;;;;;;18.10;99.90;;;;;;5116392;27;19923;-73
2022/08/03 01:44:15;;;;;;;;;;;18.10;99.90;;;;;;5115631;27;19964;-74
2022/08/03 01:46:41;;;;;;;;;;;18.10;99.90;;;;;;5134412;27;20350;-73
2022/08/03 01:49:09;;;;;;;;;;;18.10;99.90;;;;;;5115525;27;19904;-73
2022/08/03 01:51:40;;;;;;;;;;;18.00;99.90;;;;;;5134717;27;19910;-74
2022/08/03 01:54:06;;;;;;;;;;;18.00;99.90;;;;;;5134292;27;19918;-74
2022/08/03 01:56:32;;;;;;;;;;;18.00;99.90;;;;;;5134450;27;20340;-73
2022/08/03 01:59:00;;;;;;;;;;;18.00;99.90;;;;;;5134595;27;19914;-74
2022/08/03 02:01:26;;;;;;;;;;;18.00;99.90;;;;;;5133921;27;20002;-74
2022/08/03 02:03:51;;;;;;;;;;;18.00;99.90;;;;;;5133913;27;19903;-73
2022/08/03 02:06:18;;;;;;;;;;;18.00;99.90;;;;;;5133946;27;20293;-74
2022/08/03 02:08:46;;;;;;;;;;;18.00;99.90;;;;;;5134159;27;19957;-73
2022/08/03 02:11:11;;;;;;;;;;;18.00;99.90;;;;;;5133662;27;19907;-74
2022/08/03 02:13:37;;;;;;;;;;;18.00;99.90;;;;;;5134513;27;19926;-74
2022/08/03 02:16:03;;;;;;;;;;;18.00;99.90;;;;;;5134046;27;19954;-74
2022/08/03 02:18:30;;;;;;;;;;;18.00;99.90;;;;;;5134362;27;20398;-74
2022/08/03 02:20:56;;;;;;;;;;;18.10;99.90;;;;;;5133993;27;19934;-74
2022/08/03 02:23:21;;;;;;;;;;;18.00;99.90;;;;;;5133500;27;19942;-74
2022/08/03 02:25:49;;;;;;;;;;;18.00;99.90;;;;;;5133907;27;19911;-74
2022/08/03 02:28:19;;;;;;;;;;;18.00;99.90;;;;;;5115364;27;19907;-74
2022/08/03 02:30:47;;;;;;;;;;;18.00;99.90;;;;;;5134043;27;19904;-74
2022/08/03 02:33:24;;;;;;;;;;;18.00;99.90;;;;;;5133317;27;19910;-74
2022/08/03 02:35:50;;;;;;;;;;;18.00;99.90;;;;;;5134214;27;19972;-74
2022/08/03 02:38:18;;;;;;;;;;;18.00;99.90;;;;;;5133609;27;19904;-74
2022/08/03 02:40:45;;;;;;;;;;;18.00;99.90;;;;;;5133678;27;19923;-74
2022/08/03 02:43:15;;;;;;;;;;;18.00;99.90;;;;;;5133482;27;19956;-75
2022/08/03 02:45:42;;;;;;;;;;;18.00;99.90;;;;;;5133700;28;19914;-74
2022/08/03 02:48:08;;;;;;;;;;;18.00;99.90;;;;;;5133232;28;19960;-74
2022/08/03 02:50:35;;;;;;;;;;;18.00;99.90;;;;;;5133833;28;19922;-74
2022/08/03 02:53:01;;;;;;;;;;;18.00;99.90;;;;;;5133677;28;20271;-74
2022/08/03 02:55:27;;;;;;;;;;;17.90;99.90;;;;;;5133134;28;20363;-74
2022/08/03 02:57:54;;;;;;;;;;;18.00;99.90;;;;;;5133623;28;19986;-75
2022/08/03 03:00:20;;;;;;;;;;;17.90;99.90;;;;;;5133436;28;19910;-74
2022/08/03 03:02:46;;;;;;;;;;;17.80;99.90;;;;;;5133530;28;19903;-74
2022/08/03 03:05:11;;;;;;;;;;;17.70;99.90;;;;;;5133321;28;19960;-74
2022/08/03 03:07:37;;;;;;;;;;;17.70;99.90;;;;;;5133944;28;19907;-74
2022/08/03 03:10:03;;;;;;;;;;;17.70;99.90;;;;;;5133804;28;19910;-74
2022/08/03 03:12:30;;;;;;;;;;;17.60;99.90;;;;;;5133328;28;19910;-74
2022/08/03 03:14:56;;;;;;;;;;;17.50;99.90;;;;;;5117287;27;20018;-74
2022/08/03 03:17:22;;;;;;;;;;;17.50;99.90;;;;;;5137203;27;20040;-74
2022/08/03 03:19:49;;;;;;;;;;;17.50;99.90;;;;;;5137811;27;20025;-74
2022/08/03 03:22:15;;;;;;;;;;;17.40;99.90;;;;;;5137199;27;19918;-74
2022/08/03 03:24:41;;;;;;;;;;;17.30;99.90;;;;;;5119207;27;19908;-74
2022/08/03 03:27:07;;;;;;;;;;;17.40;99.90;;;;;;5137412;27;19907;-74
2022/08/03 03:29:33;;;;;;;;;;;17.30;99.90;;;;;;5137135;27;19927;-74
2022/08/03 03:31:59;;;;;;;;;;;17.40;99.90;;;;;;5137369;27;19907;-73
2022/08/03 03:34:27;;;;;;;;;;;17.40;99.90;;;;;;5136803;27;19910;-74
2022/08/03 03:36:52;;;;;;;;;;;17.30;99.90;;;;;;5137196;27;19954;-74
2022/08/03 03:39:18;;;;;;;;;;;17.40;99.90;;;;;;5136878;27;19939;-74
2022/08/03 03:41:43;;;;;;;;;;;17.30;99.90;;;;;;5137342;27;19922;-74
2022/08/03 03:44:09;;;;;;;;;;;17.40;99.90;;;;;;5136871;27;19903;-74
2022/08/03 03:46:35;;;;;;;;;;;17.40;99.90;;;;;;5137258;27;19918;-74
2022/08/03 03:49:01;;;;;;;;;;;17.40;99.90;;;;;;5136939;27;20271;-74
2022/08/03 03:51:26;;;;;;;;;;;17.50;99.90;;;;;;5136643;27;19961;-74
2022/08/03 03:53:59;;;;;;;;;;;17.50;99.90;;;;;;5118934;27;19907;-74
2022/08/03 03:56:25;;;;;;;;;;;17.50;99.90;;;;;;5136549;27;19910;-74
2022/08/03 03:58:51;;;;;;;;;;;17.50;99.90;;;;;;5136989;27;20332;-74
2022/08/03 04:01:16;;;;;;;;;;;17.50;99.90;;;;;;5136433;27;20252;-74
2022/08/03 04:03:42;;;;;;;;;;;17.60;99.90;;;;;;5137007;27;19910;-74
2022/08/03 04:11:38;;;;;;;;;;;17.60;99.90;;;;;;5136720;27;19956;-74
2022/08/03 04:14:26;;;;;;;;;;;17.50;99.90;;;;;;5136650;27;19903;-74
2022/08/03 04:17:00;;;;;;;;;;;17.50;99.90;;;;;;5136670;27;19903;-73
2022/08/03 04:19:32;;;;;;;;;;;17.50;99.90;;;;;;5136058;27;19956;-74
2022/08/03 04:22:04;;;;;;;;;;;17.50;99.90;;;;;;5136604;27;19903;-73
2022/08/03 04:24:31;;;;;;;;;;;17.40;99.90;;;;;;5136030;27;19968;-74
2022/08/03 04:26:58;;;;;;;;;;;17.40;99.90;;;;;;5135602;27;20270;-73
2022/08/03 04:29:24;;;;;;;;;;;17.30;99.90;;;;;;5135973;27;19953;-74
2022/08/03 04:31:51;;;;;;;;;;;17.20;99.90;;;;;;5136339;27;19910;-73
2022/08/03 04:34:17;;;;;;;;;;;17.10;99.90;;;;;;5135650;27;20006;-73
2022/08/03 04:36:51;;;;;;;;;;;17.10;99.90;;;;;;5136419;27;19954;-74
2022/08/03 04:39:21;;;;;;;;;;;17.10;99.90;;;;;;5117372;27;20002;-73
2022/08/03 04:41:47;;;;;;;;;;;17.00;99.90;;;;;;5136327;27;19915;-74
2022/08/03 04:44:13;;;;;;;;;;;17.00;99.90;;;;;;5135580;27;19904;-74
2022/08/03 04:46:38;;;;;;;;;;;17.00;99.90;;;;;;5136103;27;20267;-74
2022/08/03 04:49:04;;;;;;;;;;;17.10;99.90;;;;;;5135958;27;19904;-74
2022/08/03 04:51:30;;;;;;;;;;;17.10;99.90;;;;;;5135466;27;19907;-74
2022/08/03 04:53:56;;;;;;;;;;;17.10;99.90;;;;;;5136223;27;19994;-74
2022/08/03 04:56:21;;;;;;;;;;;17.10;99.90;;;;;;5135384;27;19935;-74
2022/08/03 04:58:47;;;;;;;;;;;17.10;99.90;;;;;;5135956;27;20390;-74
2022/08/03 05:01:13;;;;;;;;;;;17.10;99.90;;;;;;5135512;27;19903;-74
2022/08/03 05:03:39;;;;;;;;;;;17.00;99.90;;;;;;5135314;27;19907;-73
2022/08/03 05:06:05;;;;;;;;;;;17.00;99.90;;;;;;5135471;27;20363;-74
2022/08/03 05:08:30;;;;;;;;;;;16.90;99.90;;;;;;5135018;27;19914;-74
2022/08/03 05:10:57;;;;;;;;;;;16.90;99.90;;;;;;5135350;27;20304;-74
2022/08/03 05:13:22;;;;;;;;;;;16.80;99.90;;;;;;5134835;27;19910;-74
2022/08/03 05:15:48;;;;;;;;;;;16.80;99.90;;;;;;5135289;27;19994;-74
2022/08/03 05:18:13;;;;;;;;;;;16.80;99.90;;;;;;5135311;27;19903;-74
2022/08/03 05:20:39;;;;;;;;;;;16.70;99.90;;;;;;5135213;27;20396;-74
2022/08/03 05:23:04;;;;;;;;;;;16.80;99.90;;;;;;5135217;27;19903;-74
2022/08/03 05:25:30;;;;;;;;;;;16.70;99.90;;;;;;5134727;27;19913;-74
2022/08/03 05:27:56;;;;;;;;;;;16.80;99.90;;;;;;5135103;27;20390;-74
2022/08/03 05:30:21;;;;;;;;;;;16.80;99.90;;;;;;5134636;27;19904;-74
2022/08/03 05:32:47;;;;;;;;;;;16.90;99.90;;;;;;5135504;27;20255;-74
2022/08/03 05:35:12;;;;;;;;;;;16.80;99.90;;;;;;5116624;27;19903;-74
2022/08/03 05:37:38;;;;;;;;;;;16.90;99.90;;;;;;5133675;27;19907;-74
2022/08/03 05:40:04;;;;;;;;;;;17.10;99.90;;;;;;5135013;27;19916;-74
2022/08/03 05:42:30;;;;;;;;;;;17.10;99.90;;;;;;5134225;27;19939;-74
2022/08/03 05:44:55;;;;;;;;;;;17.10;99.90;;;;;;5134714;27;19962;-73
2022/08/03 05:47:21;;;;;;;;;;;17.10;99.90;;;;;;5134324;27;19913;-74
2022/08/03 05:49:46;;;;;;;;;;;17.20;99.90;;;;;;5134718;27;19903;-74
2022/08/03 05:52:12;;;;;;;;;;;17.20;99.90;;;;;;5135252;27;19904;-74
2022/08/03 05:54:37;;;;;;;;;;;17.10;99.90;;;;;;5134159;27;20300;-74
2022/08/03 05:57:03;;;;;;;;;;;17.10;99.90;;;;;;5135088;27;20355;-74
2022/08/03 05:59:29;;;;;;;;;;;17.10;99.90;;;;;;5134152;27;19907;-74
2022/08/03 06:01:54;;;;;;;;;;;17.10;99.90;;;;;;5134517;27;19904;-73
2022/08/03 06:04:20;;;;;;;;;;;17.10;99.90;;;;;;5134058;27;20251;-74
2022/08/03 06:06:46;;;;;;;;;;;17.10;99.90;;;;;;5134217;27;20006;-74
2022/08/03 06:09:12;;;;;;;;;;;17.10;99.90;;;;;;5134233;27;20358;-74
2022/08/03 06:11:39;;;;;;;;;;;17.10;99.90;;;;;;5133840;27;19903;-74
2022/08/03 06:14:05;;;;;;;;;;;17.10;99.90;;;;;;5134463;27;19954;-74
2022/08/03 06:16:30;;;;;;;;;;;17.00;99.90;;;;;;5133566;27;20314;-74
2022/08/03 06:18:56;;;;;;;;;;;17.00;99.90;;;;;;5134434;27;19947;-74
2022/08/03 06:21:21;;;;;;;;;;;17.10;99.90;;;;;;5133562;27;19942;-75
2022/08/03 06:23:47;;;;;;;;;;;17.20;99.90;;;;;;5115873;27;20301;-74
2022/08/03 06:26:13;;;;;;;;;;;17.40;99.90;;;;;;5115433;27;20005;-74
2022/08/03 06:28:38;;;;;;;;;;;17.50;99.90;;;;;;5133942;27;19946;-75
2022/08/03 06:31:04;;;;;;;;;;;17.60;99.90;;;;;;5134191;27;19903;-76
2022/08/03 06:33:29;;;;;;;;;;;17.70;99.90;;;;;;5133525;27;19926;-76
2022/08/03 06:35:55;;;;;;;;;;;17.80;99.90;;;;;;5133907;27;19998;-76
2022/08/03 06:38:20;;;;;;;;;;;17.80;99.90;;;;;;5133222;27;19903;-76
2022/08/03 06:40:46;;;;;;;;;;;18.00;99.90;;;;;;5133945;27;19919;-76
2022/08/03 06:43:14;;;;;;;;;;;18.20;99.90;;;;;;5134062;27;19910;-75
2022/08/03 06:45:40;;;;;;;;;;;18.40;99.90;;;;;;5133269;28;19997;-75
2022/08/03 06:48:06;;;;;;;;;;;18.50;99.90;;;;;;5134006;28;20336;-74
2022/08/03 06:50:32;;;;;;;;;;;18.60;99.90;;;;;;5139112;27;19911;-75
2022/08/03 06:52:58;;;;;;;;;;;18.50;99.90;;;;;;5140959;27;19907;-75
2022/08/03 06:55:24;;;;;;;;;;;18.50;99.90;;;;;;5140242;27;19956;-75
2022/08/03 06:57:49;;;;;;;;;;;18.50;99.90;;;;;;5122587;27;19907;-75
2022/08/03 07:00:15;;;;;;;;;;;18.50;99.90;;;;;;5140642;27;20006;-75
2022/08/03 07:02:41;;;;;;;;;;;18.60;99.90;;;;;;5140200;27;19930;-75
2022/08/03 07:05:07;;;;;;;;;;;18.50;99.90;;;;;;5140681;27;19907;-75
2022/08/03 07:07:32;;;;;;;;;;;18.30;99.90;;;;;;5139721;27;20274;-75
2022/08/03 07:09:58;;;;;;;;;;;18.30;99.90;;;;;;5140302;27;20005;-75
2022/08/03 07:12:25;;;;;;;;;;;18.30;99.90;;;;;;5139826;27;19903;-75
2022/08/03 07:14:50;;;;;;;;;;;18.30;99.90;;;;;;5140681;27;19994;-76
2022/08/03 07:17:16;;;;;;;;;;;18.30;99.90;;;;;;5140564;27;19939;-76
2022/08/03 07:19:42;;;;;;;;;;;18.20;99.90;;;;;;5121821;27;19912;-76
2022/08/03 07:22:08;;;;;;;;;;;18.20;99.90;;;;;;5140287;27;19910;-76
2022/08/03 07:24:33;;;;;;;;;;;18.30;99.90;;;;;;5139756;27;20340;-76
2022/08/03 07:26:59;;;;;;;;;;;18.60;99.90;;;;;;5140360;27;19908;-75
2022/08/03 07:29:24;;;;;;;;;;;18.80;99.90;;;;;;5139738;27;19903;-74
2022/08/03 07:31:50;;;;;;;;;;;18.90;99.90;;;;;;5140479;27;19904;-74
2022/08/03 07:34:15;;;;;;;;;;;18.80;99.90;;;;;;5121923;27;19982;-74
2022/08/03 07:36:41;;;;;;;;;;;18.80;99.90;;;;;;5139905;27;19907;-74
2022/08/03 07:39:07;;;;;;;;;;;18.80;99.90;;;;;;5140160;27;20250;-74
2022/08/03 07:41:32;;;;;;;;;;;18.60;99.90;;;;;;5143897;27;19950;-74
2022/08/03 07:43:58;;;;;;;;;;;18.60;99.90;;;;;;5146497;27;20439;-75
2022/08/03 07:46:23;;;;;;;;;;;18.60;99.90;;;;;;5151766;27;19911;-74
2022/08/03 07:48:49;;;;;;;;;;;18.60;99.90;;;;;;5158417;27;19970;-75
2022/08/03 07:51:14;;;;;;;;;;;18.60;99.90;;;;;;5157581;27;20379;-74
2022/08/03 07:53:40;;;;;;;;;;;18.70;99.90;;;;;;5157400;27;19913;-74
2022/08/03 07:56:05;;;;;;;;;;;18.60;99.90;;;;;;5152932;27;20227;-75
2022/08/03 07:58:31;;;;;;;;;;;18.70;99.90;;;;;;5137143;27;19911;-74
2022/08/03 08:00:57;;;;;;;;;;;18.80;99.90;;;;;;5135103;27;19937;-75
2022/08/03 08:03:22;;;;;;;;;;;18.80;99.90;;;;;;5151183;27;19914;-74
2022/08/03 08:05:48;;;;;;;;;;;18.70;99.90;;;;;;5153655;27;20313;-74
2022/08/03 08:08:13;;;;;;;;;;;18.70;99.90;;;;;;5154498;27;19911;-74
2022/08/03 08:10:39;;;;;;;;;;;18.70;99.90;;;;;;5135843;27;20339;-74
2022/08/03 08:13:05;;;;;;;;;;;18.70;99.90;;;;;;5143544;27;19911;-76
2022/08/03 08:15:30;;;;;;;;;;;18.70;99.90;;;;;;5140497;27;19907;-75
2022/08/03 08:17:57;;;;;;;;;;;18.90;99.90;;;;;;5134438;27;19955;-75
2022/08/03 08:20:24;;;;;;;;;;;19.10;99.90;;;;;;5142798;27;19908;-75
2022/08/03 08:22:50;;;;;;;;;;;19.30;99.90;;;;;;5133757;27;19908;-75
2022/08/03 08:25:15;;;;;;;;;;;19.40;99.90;;;;;;5133908;27;20256;-74
2022/08/03 08:27:42;;;;;;;;;;;19.40;99.90;;;;;;5133298;27;19912;-74
2022/08/03 08:30:08;;;;;;;;;;;19.50;99.90;;;;;;5115520;27;19930;-75
2022/08/03 08:32:33;;;;;;;;;;;19.60;99.90;;;;;;5133091;27;20331;-75
2022/08/03 08:34:59;;;;;;;;;;;19.70;99.90;;;;;;5115178;27;19913;-76
2022/08/03 08:37:24;;;;;;;;;;;19.80;99.90;;;;;;5133636;27;19911;-76
2022/08/03 08:39:50;;;;;;;;;;;19.70;99.90;;;;;;5133014;27;19923;-75
2022/08/03 08:42:16;;;;;;;;;;;19.80;99.90;;;;;;5133754;27;19908;-76
2022/08/03 08:44:41;;;;;;;;;;;19.90;99.90;;;;;;5142893;27;20428;-75
2022/08/03 08:47:08;;;;;;;;;;;20.00;99.90;;;;;;5139863;27;19934;-76
2022/08/03 08:49:35;;;;;;;;;;;20.20;99.90;;;;;;5133095;27;19928;-76
2022/08/03 08:52:02;;;;;;;;;;;20.30;99.90;;;;;;5133148;27;19908;-76
2022/08/03 08:54:28;;;;;;;;;;;20.40;99.90;;;;;;5132960;27;19942;-76
2022/08/03 08:56:56;;;;;;;;;;;20.30;99.90;;;;;;5118563;27;20255;-76
2022/08/03 08:59:21;;;;;;;;;;;20.40;99.90;;;;;;5148406;27;20301;-77
2022/08/03 09:01:47;;;;;;;;;;;20.40;99.90;;;;;;5149897;27;19914;-76
2022/08/03 09:04:13;;;;;;;;;;;20.20;99.90;;;;;;5132845;27;19943;-76
2022/08/03 09:06:38;;;;;;;;;;;20.00;99.90;;;;;;5132673;27;19930;-77
2022/08/03 09:09:05;;;;;;;;;;;19.90;99.90;;;;;;5133393;27;19990;-76
2022/08/03 09:11:30;;;;;;;;;;;19.80;99.90;;;;;;5148411;27;19939;-76
2022/08/03 09:13:57;;;;;;;;;;;19.70;99.90;;;;;;5153219;27;19946;-76
2022/08/03 09:16:23;;;;;;;;;;;19.60;99.90;;;;;;5152900;27;19933;-76
2022/08/03 09:18:49;;;;;;;;;;;19.40;99.90;;;;;;5151809;27;19915;-75
2022/08/03 09:21:17;;;;;;;;;;;19.20;99.90;;;;;;5132850;27;19907;-76
2022/08/03 09:23:43;;;;;;;;;;;19.20;99.90;;;;;;5133772;27;19912;-76
2022/08/03 09:26:09;;;;;;;;;;;19.10;99.90;;;;;;5127744;27;20420;-76
2022/08/03 09:28:35;;;;;;;;;;;19.20;99.90;;;;;;5152492;27;19915;-76
2022/08/03 09:31:00;;;;;;;;;;;19.20;99.90;;;;;;5148893;27;19920;-75
2022/08/03 09:33:26;;;;;;;;;;;19.30;99.90;;;;;;5138915;27;19914;-75
2022/08/03 09:35:54;;;;;;;;;;;19.30;99.90;;;;;;5151765;27;19907;-76
2022/08/03 09:38:24;;;;;;;;;;;19.50;99.90;;;;;;5152849;27;19914;-77
2022/08/03 09:40:50;;;;;;;;;;;19.70;99.90;;;;;;5133258;27;20315;-77
2022/08/03 09:43:16;;;;;;;;;;;19.90;99.90;;;;;;5151541;27;19907;-76
2022/08/03 09:45:43;;;;;;;;;;;19.90;99.90;;;;;;5151923;27;19918;-76
2022/08/03 09:48:23;;;;;;;;;;;19.90;99.90;;;;;;5148484;27;19971;-76
2022/08/03 09:50:54;;;;;;;;;;;19.80;99.90;;;;;;5151531;27;19918;-76
2022/08/03 09:53:19;;;;;;;;;;;19.80;99.90;;;;;;5152462;27;19911;-76
2022/08/03 09:55:55;;;;;;;;;;;19.70;99.90;;;;;;5151244;27;20068;-76
2022/08/03 09:58:21;;;;;;;;;;;19.70;99.90;;;;;;5126724;27;19914;-76
2022/08/03 10:00:53;;;;;;;;;;;19.60;99.90;;;;;;5113132;27;19914;-75
2022/08/03 10:03:19;;;;;;;;;;;19.80;99.90;;;;;;5149723;27;19907;-75
2022/08/03 10:05:45;;;;;;;;;;;19.90;99.90;;;;;;5131491;27;20340;-75
2022/08/03 10:08:15;;;;;;;;;;;20.00;99.90;;;;;;5131601;27;19911;-75
2022/08/03 10:10:42;;;;;;;;;;;20.10;99.90;;;;;;5131211;27;19908;-76
2022/08/03 10:13:08;;;;;;;;;;;20.20;99.90;;;;;;5145146;27;19919;-76
2022/08/03 10:15:33;;;;;;;;;;;20.30;99.90;;;;;;5135140;27;19915;-76
2022/08/03 10:17:59;;;;;;;;;;;20.30;99.90;;;;;;5151351;27;19907;-76
2022/08/03 10:20:24;;;;;;;;;;;20.50;99.90;;;;;;5136178;27;19908;-76
2022/08/03 10:22:50;;;;;;;;;;;20.60;99.90;;;;;;5131002;27;20078;-76
2022/08/03 10:25:16;;;;;;;;;;;20.80;99.90;;;;;;5130793;27;19954;-76
2022/08/03 10:27:45;;;;;;;;;;;21.00;99.90;;;;;;5140598;27;20287;-76
2022/08/03 10:30:11;;;;;;;;;;;21.00;99.90;;;;;;5150671;27;19918;-76
2022/08/03 10:32:39;;;;;;;;;;;21.10;99.90;;;;;;5150343;27;19908;-75
2022/08/03 10:35:05;;;;;;;;;;;21.20;99.90;;;;;;5131408;27;19915;-76
2022/08/03 10:37:33;;;;;;;;;;;21.30;99.90;;;;;;5149250;27;19913;-76
2022/08/03 10:39:59;;;;;;;;;;;21.50;99.90;;;;;;5131399;27;20911;-76
2022/08/03 10:42:27;;;;;;;;;;;21.50;99.90;;;;;;5113265;27;19960;-77
2022/08/03 10:45:01;;;;;;;;;;;21.50;99.90;;;;;;5130928;27;19915;-76
2022/08/03 10:47:27;;;;;;;;;;;21.30;99.90;;;;;;5149941;27;19957;-77
2022/08/03 10:49:52;;;;;;;;;;;21.10;99.90;;;;;;5124253;27;20106;-76
2022/08/03 10:52:18;;;;;;;;;;;21.20;99.90;;;;;;5131362;27;19919;-76
2022/08/03 10:57:44;;;;;;;;;;;21.20;99.90;;;;;;5151130;27;20578;-76
2022/08/03 11:00:10;;;;;;;;;;;21.20;99.90;;;;;;5151610;27;19954;-76
2022/08/03 11:02:55;;;;;;;;;;;21.30;99.90;;;;;;5150633;27;20332;-76
2022/08/03 11:05:23;;;;;;;;;;;21.30;99.90;;;;;;5136911;27;19919;-77
2022/08/03 11:07:49;;;;;;;;;;;21.40;99.90;;;;;;5133038;27;19911;-77
2022/08/03 11:10:31;;;;;;;;;;;21.30;99.90;;;;;;5142637;27;20002;-74
2022/08/03 11:13:05;;;;;;;;;;;21.40;99.90;;;;;;5133442;27;19939;-76
2022/08/03 11:15:33;;;;;;;;;;;21.60;99.90;;;;;;5144983;27;19999;-75
2022/08/03 11:18:06;;;;;;;;;;;21.80;99.90;;;;;;5142637;27;19969;-75
2022/08/03 11:20:51;;;;;;;;;;;22.00;99.90;;;;;;5151101;27;20006;-76
2022/08/03 11:23:19;;;;;;;;;;;22.00;99.90;;;;;;5145344;27;20263;-75
2022/08/03 11:26:03;;;;;;;;;;;22.20;99.90;;;;;;5129996;27;19911;-75
2022/08/03 11:28:29;;;;;;;;;;;22.30;99.90;;;;;;5151199;27;19922;-76
2022/08/03 11:30:54;;;;;;;;;;;22.40;99.90;;;;;;5150507;27;19919;-76
2022/08/03 11:33:30;;;;;;;;;;;22.60;99.90;;;;;;5151227;27;19997;-76
2022/08/03 11:36:00;;;;;;;;;;;22.60;99.90;;;;;;5148218;27;19926;-76
2022/08/03 11:38:26;;;;;;;;;;;22.50;99.90;;;;;;5134687;27;20465;-75
2022/08/03 11:40:52;;;;;;;;;;;22.40;99.90;;;;;;5134249;27;19915;-76
2022/08/03 11:43:20;;;;;;;;;;;22.30;99.90;;;;;;5116537;27;20006;-76
2022/08/03 11:46:02;;;;;;;;;;;22.20;99.90;;;;;;5154281;27;19950;-76
2022/08/03 11:48:34;;;;;;;;;;;22.10;99.90;;;;;;5154652;27;20316;-76
2022/08/03 11:51:00;;;;;;;;;;;21.80;99.90;;;;;;5154349;27;19926;-76
2022/08/03 11:53:26;;;;;;;;;;;21.70;99.90;;;;;;5147714;27;20229;-76
2022/08/03 11:55:52;;;;;;;;;;;21.90;99.90;;;;;;5134097;27;19929;-76
2022/08/03 11:58:22;;;;;;;;;;;21.90;99.90;;;;;;5146730;27;19907;-76
2022/08/03 12:00:48;;;;;;;;;;;22.00;99.90;;;;;;5150424;27;20408;-75
2022/08/03 12:03:18;;;;;;;;;;;22.10;99.90;;;;;;5133962;27;19960;-76
2022/08/03 12:05:43;;;;;;;;;;;22.10;99.90;;;;;;5133212;27;19938;-76
2022/08/03 12:08:10;;;;;;;;;;;22.00;99.90;;;;;;5133928;27;20343;-76
2022/08/03 12:10:36;;;;;;;;;;;22.00;99.90;;;;;;5127166;27;19931;-76
2022/08/03 12:13:04;;;;;;;;;;;22.10;99.90;;;;;;5154495;27;19907;-76
2022/08/03 12:15:32;;;;;;;;;;;22.20;99.90;;;;;;5154143;27;19941;-77
2022/08/03 12:17:58;;;;;;;;;;;22.10;99.90;;;;;;5142756;27;19915;-75
2022/08/03 12:20:28;;;;;;;;;;;21.90;99.90;;;;;;5133897;27;19911;-76
2022/08/03 12:22:54;;;;;;;;;;;21.70;99.90;;;;;;5117051;27;19912;-76
2022/08/03 12:25:24;;;;;;;;;;;21.60;99.90;;;;;;5140686;27;20251;-76
2022/08/03 12:27:50;;;;;;;;;;;21.60;99.90;;;;;;5142515;27;20000;-76
2022/08/03 12:30:16;;;;;;;;;;;21.60;99.90;;;;;;5133591;27;19908;-76
2022/08/03 12:32:42;;;;;;;;;;;21.60;99.90;;;;;;5133596;27;19915;-75
2022/08/03 12:35:08;;;;;;;;;;;21.40;99.90;;;;;;5134199;27;19986;-77
2022/08/03 12:37:34;;;;;;;;;;;21.50;99.90;;;;;;5154289;27;19989;-76
2022/08/03 12:40:02;;;;;;;;;;;21.40;99.90;;;;;;5143454;27;20323;-76
2022/08/03 12:42:34;;;;;;;;;;;21.40;99.90;;;;;;5132673;27;21414;-76
2022/08/03 12:45:16;;;;;;;;;;;21.40;99.90;;;;;;5133247;27;19919;-76
2022/08/03 12:47:58;;;;;;;;;;;21.70;99.90;;;;;;5151394;27;19936;-76
2022/08/03 12:50:26;;;;;;;;;;;21.80;99.90;;;;;;5134981;27;19987;-76
2022/08/03 12:52:51;;;;;;;;;;;22.00;99.90;;;;;;5152864;27;19965;-76
2022/08/03 12:55:21;;;;;;;;;;;22.20;99.90;;;;;;5150345;27;19935;-76
2022/08/03 12:57:47;;;;;;;;;;;22.20;99.90;;;;;;5140919;27;19926;-75
2022/08/03 13:00:13;;;;;;;;;;;22.30;99.90;;;;;;5133025;27;19916;-76
2022/08/03 13:02:39;;;;;;;;;;;22.20;99.90;;;;;;5133206;27;19911;-77
2022/08/03 13:05:11;;;;;;;;;;;21.90;99.90;;;;;;5153179;27;19915;-76
2022/08/03 13:07:43;;;;;;;;;;;21.60;99.90;;;;;;5152124;27;19923;-75
2022/08/03 13:10:09;;;;;;;;;;;21.20;99.90;;;;;;5150792;27;19911;-75
2022/08/03 13:12:48;;;;;;;;;;;20.90;99.90;;;;;;5149643;27;19933;-76
2022/08/03 13:15:14;;;;;;;;;;;20.60;99.90;;;;;;5152999;27;19907;-75
2022/08/03 13:17:40;;;;;;;;;;;20.40;99.90;;;;;;5152018;27;19907;-75
2022/08/03 13:20:06;;;;;;;;;;;20.40;99.90;;;;;;5152813;27;20010;-76
2022/08/03 13:22:32;;;;;;;;;;;20.40;99.90;;;;;;5152763;27;19950;-77
2022/08/03 13:24:59;;;;;;;;;;;20.40;99.90;;;;;;5152350;27;20539;-76
2022/08/03 13:27:26;;;;;;;;;;;20.40;99.90;;;;;;5146859;27;19996;-75
2022/08/03 13:29:52;;;;;;;;;;;20.50;99.90;;;;;;5132132;27;20366;-75
2022/08/03 13:32:18;;;;;;;;;;;20.50;99.90;;;;;;5132474;27;19907;-76
2022/08/03 13:34:44;;;;;;;;;;;20.50;99.90;;;;;;5131937;27;19908;-76
2022/08/03 13:37:10;;;;;;;;;;;20.50;99.90;;;;;;5132020;27;19919;-75
2022/08/03 13:39:40;;;;;;;;;;;20.60;99.90;;;;;;5132464;27;19949;-75
2022/08/03 13:42:05;;;;;;;;;;;20.70;99.90;;;;;;5132567;27;19915;-76
2022/08/03 13:44:31;;;;;;;;;;;20.80;99.90;;;;;;5132738;27;21241;-75
2022/08/03 13:46:58;;;;;;;;;;;20.90;99.90;;;;;;5131755;27;19943;-75
2022/08/03 13:49:23;;;;;;;;;;;21.00;99.90;;;;;;5132019;27;19916;-75
2022/08/03 13:51:49;;;;;;;;;;;21.20;99.90;;;;;;5131951;27;20244;-77
2022/08/03 13:54:14;;;;;;;;;;;21.40;99.90;;;;;;5132206;27;19908;-75
2022/08/03 13:56:40;;;;;;;;;;;21.50;99.90;;;;;;5146466;27;20298;-75
2022/08/03 13:59:06;;;;;;;;;;;21.50;99.90;;;;;;5151588;27;19907;-75
2022/08/03 14:01:31;;;;;;;;;;;21.40;99.90;;;;;;5131967;27;19919;-76
2022/08/03 14:03:57;;;;;;;;;;;21.30;99.90;;;;;;5131315;27;19915;-76
2022/08/03 14:06:23;;;;;;;;;;;21.30;99.90;;;;;;5131980;27;19950;-77
2022/08/03 14:08:48;;;;;;;;;;;21.30;99.90;;;;;;5139016;27;19918;-76
2022/08/03 14:11:14;;;;;;;;;;;21.60;99.90;;;;;;5151482;27;19956;-75
2022/08/03 14:13:40;;;;;;;;;;;21.70;99.90;;;;;;5151984;27;20005;-75
2022/08/03 14:16:06;;;;;;;;;;;21.80;99.90;;;;;;5149155;27;20302;-75
2022/08/03 14:18:31;;;;;;;;;;;22.00;99.90;;;;;;5146850;27;19907;-75
2022/08/03 14:20:57;;;;;;;;;;;22.30;99.90;;;;;;5130928;27;19923;-76
2022/08/03 14:23:23;;;;;;;;;;;22.40;99.90;;;;;;5131832;27;19932;-75